Glen Aubrey, New York
Current Conditions -  °F | °C
As of 5:53 PM on Thursday 18 Dec 2014 (Local Time) from KBGM Reporting Station
Haze Haze  
Wind Chill: 21°   Ceiling: 300
Heat Index: 29°   Visibility: 4mi
Dew Point: 28°   Wind: 8mph
Humidity: 96%   Direction: 300°WNW
Pressure: 29.97"   Gusts: NA
Location:  42.26°N, 76.01°W
Report Text: KBGM 182253Z 30007KT 4SM BR OVC003 M02/M02 A2997 RMK AO2 SLP167 T10171022 $
Loading
Personal Weather Stations






























Interactive Weather Map New forecast layout! Learn more

10-Day Weather Forecast

Advertisements
Track Severe Weather on mobile